createdAt,value
2018-07-22T00:01:52.417Z,57.56
2018-07-22T00:04:21.529Z,57.85
2018-07-22T00:06:50.616Z,58.21
2018-07-22T00:09:19.743Z,57.19
2018-07-22T00:11:48.824Z,58.17
2018-07-22T00:14:17.944Z,58.02
2018-07-22T00:16:47.061Z,57.90
2018-07-22T00:19:16.188Z,58.73
2018-07-22T00:21:45.268Z,57.72
2018-07-22T00:24:14.393Z,57.25
2018-07-22T00:26:43.504Z,58.12
2018-07-22T00:29:13.626Z,56.71
2018-07-22T00:31:42.967Z,57.85
2018-07-22T00:34:12.088Z,58.37
2018-07-22T00:36:41.189Z,58.68
2018-07-22T00:39:11.393Z,58.71
2018-07-22T00:41:40.792Z,58.85
2018-07-22T00:44:09.915Z,58.17
2018-07-22T00:46:38.988Z,58.79
2018-07-22T00:49:08.096Z,59.04
2018-07-22T00:51:37.172Z,58.75
2018-07-22T00:54:06.504Z,58.88
2018-07-22T00:56:35.924Z,58.67
2018-07-22T00:59:05.096Z,59.11
2018-07-22T01:01:34.275Z,58.71
2018-07-22T01:04:03.616Z,59.01
2018-07-22T01:06:32.887Z,58.47
2018-07-22T01:09:02.121Z,58.04
2018-07-22T01:11:31.227Z,58.61
2018-07-22T01:14:00.352Z,59.19
2018-07-22T01:16:29.439Z,58.97
2018-07-22T01:18:58.553Z,59.37
2018-07-22T01:21:27.704Z,59.48
2018-07-22T01:23:56.835Z,59.82
2018-07-22T01:26:25.963Z,59.41
2018-07-22T01:28:55.084Z,59.82
2018-07-22T01:31:24.301Z,60.04
2018-07-22T01:33:53.424Z,60.52
2018-07-22T01:36:22.509Z,60.92
2018-07-22T01:38:51.648Z,61.09
2018-07-22T01:41:20.728Z,60.72
2018-07-22T01:43:49.847Z,60.01
2018-07-22T01:46:18.935Z,59.29
2018-07-22T01:48:48.064Z,59.38
2018-07-22T01:51:17.156Z,59.17
2018-07-22T01:53:46.272Z,59.27
2018-07-22T01:56:15.356Z,58.95
2018-07-22T01:58:44.470Z,59.29
2018-07-22T02:01:13.578Z,59.67
2018-07-22T02:03:42.711Z,59.28
2018-07-22T02:06:11.788Z,59.17
2018-07-22T02:08:40.919Z,58.87
2018-07-22T02:11:10.049Z,59.09
2018-07-22T02:13:39.152Z,59.60
2018-07-22T02:16:08.288Z,59.38
2018-07-22T02:18:37.432Z,59.39
2018-07-22T02:21:06.542Z,59.26
2018-07-22T02:23:35.624Z,59.44
2018-07-22T02:26:04.768Z,59.58
2018-07-22T02:28:33.840Z,59.11
2018-07-22T02:31:02.955Z,59.26
2018-07-22T02:33:32.052Z,59.38
2018-07-22T02:36:01.213Z,58.94
2018-07-22T02:38:30.304Z,58.58
2018-07-22T02:40:59.409Z,58.92
2018-07-22T02:43:28.637Z,58.86
2018-07-22T02:45:57.810Z,58.92
2018-07-22T02:48:26.909Z,59.15
2018-07-22T02:50:56.025Z,59.15
2018-07-22T02:53:25.139Z,59.04
2018-07-22T02:55:54.296Z,59.03
2018-07-22T02:58:23.372Z,59.49
2018-07-22T03:00:52.524Z,59.47
2018-07-22T03:03:21.725Z,59.64
2018-07-22T03:05:50.816Z,59.90
2018-07-22T03:08:19.896Z,59.80
2018-07-22T03:10:49.044Z,59.89
2018-07-22T03:13:18.152Z,59.28
2018-07-22T03:15:47.263Z,59.43
2018-07-22T03:18:16.356Z,59.66
2018-07-22T03:20:45.520Z,60.05
2018-07-22T03:23:14.597Z,60.08
2018-07-22T03:25:43.741Z,60.13
2018-07-22T03:28:12.825Z,59.68
2018-07-22T03:30:41.985Z,60.20
2018-07-22T03:33:11.080Z,59.68
2018-07-22T03:35:40.196Z,59.74
2018-07-22T03:38:09.300Z,60.18
2018-07-22T03:40:38.472Z,60.19
2018-07-22T03:43:07.588Z,60.00
2018-07-22T03:45:36.730Z,60.45
2018-07-22T03:48:05.884Z,60.06
2018-07-22T03:50:34.988Z,60.35
2018-07-22T03:53:04.073Z,60.55
2018-07-22T03:55:33.199Z,60.54
2018-07-22T03:58:02.296Z,60.47
2018-07-22T04:00:31.404Z,60.72
2018-07-22T04:03:00.529Z,60.58
2018-07-22T04:05:29.663Z,60.39
2018-07-22T04:07:58.768Z,60.63
2018-07-22T04:10:27.920Z,61.03
2018-07-22T04:12:57.009Z,61.18
2018-07-22T04:15:26.199Z,61.57
2018-07-22T04:17:55.363Z,62.21
2018-07-22T04:20:24.464Z,61.94
2018-07-22T04:22:53.563Z,61.84
2018-07-22T04:25:22.711Z,61.81
2018-07-22T04:27:51.868Z,61.46
2018-07-22T04:30:20.997Z,61.26
2018-07-22T04:32:50.112Z,61.19
2018-07-22T04:35:19.252Z,61.30
2018-07-22T04:37:48.366Z,61.24
2018-07-22T04:40:17.492Z,61.28
2018-07-22T04:42:46.629Z,61.67
2018-07-22T04:45:15.729Z,62.04
2018-07-22T04:47:44.831Z,61.97
2018-07-22T04:50:13.940Z,62.21
2018-07-22T04:52:43.096Z,62.01
2018-07-22T04:55:12.172Z,62.27
2018-07-22T04:57:41.276Z,61.93
2018-07-22T05:00:10.372Z,61.99
2018-07-22T05:02:39.528Z,62.27
2018-07-22T05:05:08.614Z,62.01
2018-07-22T05:07:37.747Z,61.72
2018-07-22T05:10:06.847Z,61.39
2018-07-22T05:12:35.976Z,61.31
2018-07-22T05:15:05.273Z,61.41
2018-07-22T05:17:34.408Z,60.96
2018-07-22T05:20:03.527Z,61.34
2018-07-22T05:22:32.712Z,61.30
2018-07-22T05:25:01.857Z,61.40
2018-07-22T05:27:30.969Z,61.14
2018-07-22T05:30:00.063Z,60.88
2018-07-22T05:32:29.220Z,60.88
2018-07-22T05:34:58.340Z,60.72
2018-07-22T05:37:27.448Z,60.75
2018-07-22T05:39:56.552Z,60.12
2018-07-22T05:42:25.719Z,60.80
2018-07-22T05:44:54.857Z,61.04
2018-07-22T05:47:23.961Z,60.63
2018-07-22T05:49:53.040Z,60.50
2018-07-22T05:52:22.154Z,60.62
2018-07-22T05:54:51.300Z,60.89
2018-07-22T05:57:20.416Z,60.13
2018-07-22T05:59:49.552Z,59.75
2018-07-22T06:02:18.992Z,59.25
2018-07-22T06:04:48.193Z,58.93
2018-07-22T06:07:17.299Z,59.14
2018-07-22T06:09:46.456Z,59.98
2018-07-22T06:12:15.562Z,59.72
2018-07-22T06:14:44.661Z,60.15
2018-07-22T06:17:13.784Z,60.12
2018-07-22T06:19:42.912Z,59.66
2018-07-22T06:22:12.032Z,59.31
2018-07-22T06:24:41.120Z,59.47
2018-07-22T06:27:10.252Z,59.97
2018-07-22T06:29:39.384Z,59.86
2018-07-22T06:32:08.520Z,59.54
2018-07-22T06:34:37.604Z,59.88
2018-07-22T06:37:07.012Z,59.39
2018-07-22T06:39:36.115Z,59.81
2018-07-22T06:42:05.232Z,59.23
2018-07-22T06:44:34.325Z,58.16
2018-07-22T06:47:03.447Z,58.34
2018-07-22T06:49:32.521Z,57.93
2018-07-22T06:52:01.652Z,58.80
2018-07-22T06:54:30.744Z,59.00
2018-07-22T06:56:59.872Z,58.59
2018-07-22T06:59:28.984Z,58.58
2018-07-22T07:01:58.107Z,58.69
2018-07-22T07:04:27.224Z,57.47
2018-07-22T07:06:56.338Z,57.68
2018-07-22T07:09:26.274Z,58.06
2018-07-22T07:11:55.373Z,57.42
2018-07-22T07:14:24.604Z,57.76
2018-07-22T07:16:53.716Z,56.75
2018-07-22T07:19:22.821Z,56.15
2018-07-22T07:21:51.929Z,55.13
2018-07-22T07:24:21.048Z,56.29
2018-07-22T07:26:50.165Z,57.43
2018-07-22T07:29:19.276Z,57.66
2018-07-22T07:31:48.380Z,55.87
2018-07-22T07:34:17.550Z,55.78
2018-07-22T07:36:47.604Z,55.42
2018-07-22T07:39:16.748Z,56.02
2018-07-22T07:41:45.855Z,55.09
2018-07-22T07:44:14.961Z,55.61
2018-07-22T07:46:44.048Z,55.36
2018-07-22T07:49:13.169Z,53.90
2018-07-22T07:51:42.264Z,53.64
2018-07-22T07:54:11.380Z,54.72
2018-07-22T07:56:40.487Z,55.35
2018-07-22T07:59:09.597Z,55.47
2018-07-22T08:01:38.700Z,55.16
2018-07-22T08:04:07.849Z,55.95
2018-07-22T08:06:36.967Z,55.68
2018-07-22T08:09:07.032Z,55.85
2018-07-22T08:11:36.163Z,55.76
2018-07-22T08:14:05.280Z,55.57
2018-07-22T08:16:34.873Z,55.26
2018-07-22T08:19:04.095Z,55.86
2018-07-22T08:21:33.188Z,55.56
2018-07-22T08:24:02.697Z,54.25
2018-07-22T08:26:32.424Z,54.19
2018-07-22T08:29:34.436Z,53.34
2018-07-22T08:32:04.744Z,53.02
2018-07-22T08:34:33.868Z,53.62
2018-07-22T08:37:03.068Z,53.81
2018-07-22T08:39:32.948Z,52.88
2018-07-22T08:42:02.225Z,53.82
2018-07-22T08:44:31.343Z,52.91
2018-07-22T08:47:00.442Z,53.02
2018-07-22T08:49:29.575Z,52.99
2018-07-22T08:51:58.668Z,53.53
2018-07-22T08:54:27.788Z,53.02
2018-07-22T08:56:56.880Z,53.59
2018-07-22T08:59:25.988Z,53.30
2018-07-22T09:01:55.113Z,54.00
2018-07-22T09:04:24.252Z,53.56
2018-07-22T09:06:53.349Z,53.28
2018-07-22T09:09:22.712Z,53.06
2018-07-22T09:11:51.828Z,51.94
2018-07-22T09:14:20.928Z,51.82
2018-07-22T09:16:50.029Z,52.54
2018-07-22T09:19:19.164Z,53.68
2018-07-22T09:21:48.904Z,53.87
2018-07-22T09:24:18.051Z,53.40
2018-07-22T09:26:47.205Z,52.65
2018-07-22T09:29:16.376Z,53.00
2018-07-22T09:31:45.460Z,52.03
2018-07-22T09:34:14.593Z,51.81
2018-07-22T09:36:43.700Z,51.04
2018-07-22T09:39:12.824Z,51.30
2018-07-22T09:41:41.920Z,50.24
2018-07-22T09:44:11.028Z,49.09
2018-07-22T09:46:40.180Z,49.71
2018-07-22T09:49:09.320Z,47.22
2018-07-22T09:51:38.424Z,48.07
2018-07-22T09:54:07.547Z,48.95
2018-07-22T09:56:36.646Z,47.44
2018-07-22T09:59:05.807Z,47.38
2018-07-22T10:01:34.975Z,47.26
2018-07-22T10:04:04.129Z,48.23
2018-07-22T10:06:33.522Z,46.22
2018-07-22T10:09:02.641Z,47.20
2018-07-22T10:11:31.752Z,45.98
2018-07-22T10:14:00.867Z,46.31
2018-07-22T10:16:29.989Z,45.48
2018-07-22T10:18:59.084Z,44.51
2018-07-22T10:21:28.223Z,44.10
2018-07-22T10:23:57.351Z,45.04
2018-07-22T10:26:26.444Z,44.50
2018-07-22T10:28:55.588Z,43.68
2018-07-22T10:31:24.740Z,44.51
2018-07-22T10:33:53.880Z,44.61
2018-07-22T10:36:23.012Z,43.15
2018-07-22T10:38:52.125Z,42.90
2018-07-22T10:41:21.238Z,43.77
2018-07-22T10:43:50.329Z,42.22
2018-07-22T10:46:19.450Z,42.63
2018-07-22T10:48:48.524Z,41.68
2018-07-22T10:51:17.686Z,42.22
2018-07-22T10:53:46.884Z,41.47
2018-07-22T10:56:15.996Z,42.91
2018-07-22T10:58:45.089Z,42.17
2018-07-22T11:01:14.204Z,42.25
2018-07-22T11:03:43.337Z,41.62
2018-07-22T11:06:12.460Z,40.14
2018-07-22T11:08:41.583Z,41.00
2018-07-22T11:11:10.739Z,40.31
2018-07-22T11:13:39.869Z,41.55
2018-07-22T11:16:08.989Z,41.80
2018-07-22T11:18:38.089Z,40.15
2018-07-22T11:21:07.239Z,40.90
2018-07-22T11:23:36.288Z,40.56
2018-07-22T11:26:05.418Z,40.89
2018-07-22T11:28:34.566Z,40.49
2018-07-22T11:31:03.652Z,41.22
2018-07-22T11:33:32.743Z,40.59
2018-07-22T11:36:01.936Z,41.68
2018-07-22T11:38:31.188Z,41.16
2018-07-22T11:41:00.396Z,39.53
2018-07-22T11:43:29.771Z,39.35
2018-07-22T11:45:58.887Z,39.69
2018-07-22T11:48:27.977Z,39.08
2018-07-22T11:50:57.109Z,40.23
2018-07-22T11:53:26.197Z,39.73
2018-07-22T11:55:55.388Z,38.08
2018-07-22T11:58:24.473Z,38.96
2018-07-22T12:00:53.581Z,39.35
2018-07-22T12:03:22.708Z,39.16
2018-07-22T12:05:52.477Z,39.48
2018-07-22T12:08:21.701Z,37.51
2018-07-22T12:10:50.860Z,37.59
2018-07-22T12:13:20.045Z,36.75
2018-07-22T12:15:49.136Z,37.73
2018-07-22T12:18:18.248Z,37.75
2018-07-22T12:20:47.373Z,37.26
2018-07-22T12:23:16.600Z,36.43
2018-07-22T12:25:45.739Z,35.71
2018-07-22T12:28:14.877Z,36.18
2018-07-22T12:30:43.953Z,36.98
2018-07-22T12:33:13.037Z,35.70
2018-07-22T12:35:42.160Z,35.87
2018-07-22T12:38:11.256Z,35.87
2018-07-22T12:40:40.363Z,36.42
2018-07-22T12:43:09.440Z,36.88
2018-07-22T12:45:39.463Z,35.95
2018-07-22T12:48:08.664Z,36.65
2018-07-22T12:50:38.100Z,36.21
2018-07-22T12:53:07.416Z,35.84
2018-07-22T12:55:38.188Z,36.11
2018-07-22T12:58:07.385Z,35.37
2018-07-22T13:00:36.664Z,35.36
2018-07-22T13:03:05.808Z,34.85
2018-07-22T13:05:35.359Z,34.48
2018-07-22T13:08:05.682Z,35.19
2018-07-22T13:10:34.772Z,35.74
2018-07-22T13:13:03.922Z,36.40
2018-07-22T13:15:32.965Z,35.66
2018-07-22T13:18:02.272Z,36.61
2018-07-22T13:20:31.404Z,35.67
2018-07-22T13:23:00.524Z,35.71
2018-07-22T13:25:29.804Z,34.93
2018-07-22T13:27:58.894Z,35.40
2018-07-22T13:30:27.992Z,34.63
2018-07-22T13:32:57.817Z,35.31
2018-07-22T13:35:26.933Z,35.92
2018-07-22T13:37:56.056Z,37.34
2018-07-22T13:40:25.136Z,35.66
2018-07-22T13:42:54.264Z,35.72
2018-07-22T13:45:23.769Z,36.78
2018-07-22T13:47:52.832Z,36.02
2018-07-22T13:50:21.976Z,37.16
2018-07-22T13:52:51.101Z,35.88
2018-07-22T13:55:20.193Z,36.62
2018-07-22T13:57:49.732Z,37.70
2018-07-22T14:00:18.843Z,36.78
2018-07-22T14:02:47.977Z,37.33
2018-07-22T14:05:17.060Z,37.52
2018-07-22T14:07:46.188Z,37.14
2018-07-22T14:10:15.289Z,35.94
2018-07-22T14:12:44.396Z,37.03
2018-07-22T14:15:13.512Z,37.53
2018-07-22T14:17:42.773Z,37.33
2018-07-22T14:20:11.901Z,37.74
2018-07-22T14:22:41.132Z,37.76
2018-07-22T14:25:10.266Z,38.92
2018-07-22T14:27:39.392Z,37.59
2018-07-22T14:30:08.505Z,38.57
2018-07-22T14:32:37.604Z,38.38
2018-07-22T14:35:06.768Z,38.50
2018-07-22T14:37:35.776Z,39.01
2018-07-22T14:40:05.386Z,38.62
2018-07-22T14:42:34.541Z,38.43
2018-07-22T14:45:03.668Z,37.30
2018-07-22T14:47:32.769Z,38.02
2018-07-22T14:50:01.884Z,38.49
2018-07-22T14:52:31.592Z,38.60
2018-07-22T14:55:00.724Z,39.10
2018-07-22T14:57:29.857Z,38.25
2018-07-22T14:59:58.956Z,38.35
2018-07-22T15:02:28.081Z,37.66
2018-07-22T15:04:57.199Z,37.23
2018-07-22T15:07:26.296Z,37.76
2018-07-22T15:09:55.476Z,38.60
2018-07-22T15:12:24.563Z,38.81
2018-07-22T15:14:53.644Z,38.50
2018-07-22T15:17:22.795Z,38.87
2018-07-22T15:19:51.912Z,39.07
2018-07-22T15:22:21.044Z,38.95
2018-07-22T15:24:50.132Z,37.90
2018-07-22T15:27:19.224Z,37.32
2018-07-22T15:29:48.482Z,37.02
2018-07-22T15:32:17.584Z,36.98
2018-07-22T15:34:46.708Z,37.93
2018-07-22T15:37:15.792Z,37.75
2018-07-22T15:39:45.080Z,37.72
2018-07-22T15:42:14.165Z,38.40
2018-07-22T15:44:43.305Z,39.35
2018-07-22T15:47:12.378Z,38.08
2018-07-22T15:49:41.532Z,37.01
2018-07-22T15:52:10.573Z,36.81
2018-07-22T15:54:39.675Z,37.63
2018-07-22T15:57:08.776Z,38.01
2018-07-22T15:59:37.888Z,37.37
2018-07-22T16:02:07.019Z,37.21
2018-07-22T16:04:36.146Z,36.84
2018-07-22T16:07:05.474Z,38.20
2018-07-22T16:09:34.540Z,37.35
2018-07-22T16:12:03.641Z,38.63
2018-07-22T16:14:32.736Z,39.13
2018-07-22T16:17:01.844Z,38.81
2018-07-22T16:19:31.687Z,37.35
2018-07-22T16:22:00.773Z,37.86
2018-07-22T16:24:29.931Z,39.26
2018-07-22T16:26:58.996Z,38.29
2018-07-22T16:29:28.148Z,38.63
2018-07-22T16:31:57.223Z,38.29
2018-07-22T16:34:26.365Z,37.73
2018-07-22T16:36:55.469Z,37.56
2018-07-22T16:39:24.564Z,36.85
2018-07-22T16:41:53.682Z,38.23
2018-07-22T16:44:22.785Z,38.46
2018-07-22T16:46:51.919Z,38.20
2018-07-22T16:49:21.008Z,38.94
2018-07-22T16:51:50.088Z,38.49
2018-07-22T16:54:19.215Z,38.87
2018-07-22T16:56:48.364Z,38.63
2018-07-22T16:59:17.468Z,38.59
2018-07-22T17:01:46.592Z,38.76
2018-07-22T17:04:15.724Z,39.78
2018-07-22T17:06:44.800Z,39.03
2018-07-22T17:09:14.952Z,38.69
2018-07-22T17:11:44.048Z,38.61
2018-07-22T17:14:13.166Z,39.01
2018-07-22T17:16:42.256Z,38.93
2018-07-22T17:19:11.357Z,39.70
2018-07-22T17:21:40.452Z,40.41
2018-07-22T17:24:09.543Z,39.61
2018-07-22T17:26:38.629Z,39.37
2018-07-22T17:29:07.752Z,40.06
2018-07-22T17:31:36.852Z,40.50
2018-07-22T17:34:06.968Z,40.37
2018-07-22T17:36:36.047Z,40.36
2018-07-22T17:39:08.068Z,39.64
2018-07-22T17:41:37.480Z,40.13
2018-07-22T17:44:07.133Z,40.71
2018-07-22T17:46:36.243Z,40.11
2018-07-22T17:49:05.391Z,39.91
2018-07-22T17:51:34.599Z,40.62
2018-07-22T17:54:03.751Z,40.88
2018-07-22T17:56:32.824Z,39.67
2018-07-22T17:59:01.916Z,39.77
2018-07-22T18:01:31.072Z,40.35
2018-07-22T18:04:00.197Z,41.19
2018-07-22T18:06:29.312Z,40.31
2018-07-22T18:08:59.433Z,40.58
2018-07-22T18:11:28.524Z,40.92
2018-07-22T18:13:57.649Z,41.15
2018-07-22T18:16:26.787Z,40.78
2018-07-22T18:18:55.860Z,41.70
2018-07-22T18:21:24.984Z,40.86
2018-07-22T18:23:55.179Z,41.71
2018-07-22T18:26:24.275Z,41.79
2018-07-22T18:28:53.371Z,41.99
2018-07-22T18:31:22.460Z,41.27
2018-07-22T18:33:51.572Z,42.33
2018-07-22T18:36:20.704Z,41.29
2018-07-22T18:38:49.783Z,42.08
2018-07-22T18:41:18.955Z,41.57
2018-07-22T18:43:48.043Z,42.14
2018-07-22T18:46:17.172Z,42.51
2018-07-22T18:48:46.356Z,42.00
2018-07-22T18:51:15.424Z,42.61
2018-07-22T18:53:44.516Z,41.96
2018-07-22T18:56:13.823Z,42.87
2018-07-22T18:58:42.976Z,42.27
2018-07-22T19:01:12.068Z,43.21
2018-07-22T19:03:41.156Z,43.34
2018-07-22T19:06:10.291Z,42.96
2018-07-22T19:08:40.383Z,42.84
2018-07-22T19:11:09.488Z,43.43
2018-07-22T19:13:38.563Z,43.19
2018-07-22T19:16:07.668Z,44.33
2018-07-22T19:18:37.188Z,44.73
2018-07-22T19:21:06.410Z,44.75
2018-07-22T19:23:35.580Z,45.01
2018-07-22T19:26:04.695Z,44.85
2018-07-22T19:28:33.760Z,45.53
2018-07-22T19:31:02.892Z,46.48
2018-07-22T19:33:31.964Z,46.22
2018-07-22T19:36:01.074Z,46.82
2018-07-22T19:38:30.140Z,46.27
2018-07-22T19:40:59.275Z,45.98
2018-07-22T19:43:28.368Z,46.32
2018-07-22T19:45:57.512Z,46.17
2018-07-22T19:48:26.604Z,47.27
2018-07-22T19:50:55.721Z,46.80
2018-07-22T19:53:24.816Z,47.10
2018-07-22T19:55:53.928Z,46.93
2018-07-22T19:58:22.995Z,47.36
2018-07-22T20:00:52.129Z,46.73
2018-07-22T20:03:21.237Z,47.78
2018-07-22T20:05:50.349Z,47.59
2018-07-22T20:08:19.437Z,47.54
2018-07-22T20:10:48.556Z,47.18
2018-07-22T20:13:17.664Z,48.24
2018-07-22T20:15:46.766Z,47.61
2018-07-22T20:18:16.062Z,47.82
2018-07-22T20:20:45.144Z,47.89
2018-07-22T20:23:14.228Z,48.68
2018-07-22T20:25:43.416Z,48.47
2018-07-22T20:28:14.180Z,48.93
2018-07-22T20:30:43.296Z,49.81
2018-07-22T20:33:12.424Z,49.39
2018-07-22T20:35:41.524Z,50.54
2018-07-22T20:38:10.648Z,49.96
2018-07-22T20:40:39.880Z,50.11
2018-07-22T20:43:08.989Z,50.44
2018-07-22T20:45:38.092Z,49.98
2018-07-22T20:48:07.217Z,50.79
2018-07-22T20:50:36.289Z,51.96
2018-07-22T20:53:05.488Z,52.45
2018-07-22T20:55:34.596Z,52.70
2018-07-22T20:58:03.699Z,52.55
2018-07-22T21:00:32.816Z,52.46
2018-07-22T21:03:01.949Z,51.87
2018-07-22T21:05:31.044Z,51.46
2018-07-22T21:08:00.200Z,51.65
2018-07-22T21:10:29.227Z,51.95
2018-07-22T21:13:10.000Z,52.31
2018-07-22T21:15:39.118Z,52.65
2018-07-22T21:18:08.244Z,52.59
2018-07-22T21:20:37.348Z,53.08
2018-07-22T21:23:06.675Z,52.32
2018-07-22T21:25:35.775Z,52.45
2018-07-22T21:28:04.928Z,52.71
2018-07-22T21:30:34.503Z,53.21
2018-07-22T21:33:03.662Z,53.67
2018-07-22T21:35:32.856Z,53.83
2018-07-22T21:38:01.946Z,54.32
2018-07-22T21:40:31.025Z,54.89
2018-07-22T21:43:00.181Z,54.08
2018-07-22T21:45:29.252Z,54.58
2018-07-22T21:47:58.375Z,53.58
2018-07-22T21:50:27.477Z,53.78
2018-07-22T21:52:56.580Z,53.84
2018-07-22T21:55:25.666Z,52.95
2018-07-22T21:57:54.896Z,53.21
2018-07-22T22:00:32.542Z,53.45
2018-07-22T22:03:02.832Z,54.37
2018-07-22T22:05:31.935Z,54.60
2018-07-22T22:08:01.210Z,55.66
2018-07-22T22:10:30.301Z,55.98
2018-07-22T22:12:59.396Z,56.45
2018-07-22T22:15:30.464Z,56.15
2018-07-22T22:18:00.902Z,56.23
2018-07-22T22:20:30.361Z,56.84
2018-07-22T22:22:59.507Z,57.16
2018-07-22T22:25:28.720Z,57.33
2018-07-22T22:27:57.824Z,57.04
2018-07-22T22:30:26.897Z,56.87
2018-07-22T22:32:56.004Z,56.98
2018-07-22T22:35:25.116Z,56.83
2018-07-22T22:37:54.208Z,57.20
2018-07-22T22:40:23.331Z,57.71
2018-07-22T22:42:52.424Z,58.05
2018-07-22T22:45:21.542Z,58.04
2018-07-22T22:47:50.637Z,58.24
2018-07-22T22:50:19.720Z,57.97
2018-07-22T22:52:48.855Z,57.98
2018-07-22T22:55:17.937Z,57.84
2018-07-22T22:57:58.313Z,57.91
2018-07-22T23:00:27.476Z,57.98
2018-07-22T23:02:56.658Z,58.16
2018-07-22T23:05:25.760Z,58.29
2018-07-22T23:07:54.879Z,58.64
2018-07-22T23:10:23.997Z,59.30
2018-07-22T23:12:53.144Z,59.58
2018-07-22T23:15:22.225Z,60.63
2018-07-22T23:17:51.376Z,61.15
2018-07-22T23:20:20.444Z,61.96
2018-07-22T23:22:49.531Z,61.47
2018-07-22T23:25:18.603Z,60.75
2018-07-22T23:27:47.700Z,60.11
2018-07-22T23:30:16.791Z,59.79
2018-07-22T23:32:45.867Z,60.10
2018-07-22T23:35:14.967Z,59.51
2018-07-22T23:37:44.076Z,59.79
2018-07-22T23:40:13.178Z,60.20
2018-07-22T23:42:42.299Z,60.64
2018-07-22T23:45:11.415Z,60.90
2018-07-22T23:47:40.557Z,61.38
2018-07-22T23:50:09.638Z,61.64
2018-07-22T23:52:38.737Z,61.69
2018-07-22T23:55:07.861Z,61.77
2018-07-22T23:57:37.112Z,61.95
